createdAt,value
2018-07-16T00:02:23.069Z,76.49
2018-07-16T00:04:50.079Z,76.88
2018-07-16T00:07:17.113Z,76.21
2018-07-16T00:09:44.178Z,75.83
2018-07-16T00:12:11.213Z,75.93
2018-07-16T00:14:38.908Z,76.14
2018-07-16T00:17:05.884Z,76.41
2018-07-16T00:19:32.904Z,76.70
2018-07-16T00:22:00.474Z,76.84
2018-07-16T00:24:27.523Z,76.78
2018-07-16T00:26:54.864Z,77.21
2018-07-16T00:29:22.057Z,77.00
2018-07-16T00:31:49.348Z,77.21
2018-07-16T00:34:16.641Z,77.35
2018-07-16T00:36:44.324Z,77.25
2018-07-16T00:39:11.312Z,77.11
2018-07-16T00:41:38.447Z,77.11
2018-07-16T00:44:05.677Z,77.05
2018-07-16T00:46:32.986Z,77.44
2018-07-16T00:49:00.069Z,76.97
2018-07-16T00:51:27.253Z,76.86
2018-07-16T00:53:54.277Z,76.72
2018-07-16T00:56:21.300Z,77.10
2018-07-16T00:58:48.217Z,77.45
2018-07-16T01:01:15.246Z,77.14
2018-07-16T01:03:42.398Z,77.59
2018-07-16T01:06:09.373Z,78.25
2018-07-16T01:08:36.369Z,78.06
2018-07-16T01:11:03.482Z,77.86
2018-07-16T01:13:30.686Z,78.38
2018-07-16T01:15:57.701Z,78.37
2018-07-16T01:18:24.697Z,77.97
2018-07-16T01:20:51.680Z,78.40
2018-07-16T01:23:19.225Z,78.48
2018-07-16T01:25:46.235Z,78.55
2018-07-16T01:28:13.213Z,78.80
2018-07-16T01:30:40.197Z,79.01
2018-07-16T01:33:07.181Z,79.21
2018-07-16T01:35:34.341Z,79.35
2018-07-16T01:38:01.339Z,79.58
2018-07-16T01:40:28.321Z,80.00
2018-07-16T01:42:55.302Z,79.40
2018-07-16T01:45:23.109Z,79.38
2018-07-16T01:47:50.069Z,79.31
2018-07-16T01:50:17.200Z,79.52
2018-07-16T01:52:44.182Z,79.82
2018-07-16T01:55:11.229Z,79.95
2018-07-16T01:57:38.185Z,80.39
2018-07-16T02:00:05.221Z,80.34
2018-07-16T02:02:32.209Z,80.27
2018-07-16T02:04:59.317Z,80.22
2018-07-16T02:07:26.325Z,79.95
2018-07-16T02:09:53.388Z,80.28
2018-07-16T02:12:20.397Z,80.78
2018-07-16T02:14:47.426Z,80.58
2018-07-16T02:17:14.398Z,80.75
2018-07-16T02:19:41.396Z,81.19
2018-07-16T02:22:08.352Z,80.94
2018-07-16T02:24:35.320Z,81.11
2018-07-16T02:27:02.305Z,81.25
2018-07-16T02:29:29.593Z,80.92
2018-07-16T02:31:56.602Z,81.09
2018-07-16T02:34:23.897Z,81.61
2018-07-16T02:36:50.889Z,81.33
2018-07-16T02:39:17.860Z,81.29
2018-07-16T02:41:44.837Z,81.83
2018-07-16T02:44:12.456Z,81.60
2018-07-16T02:46:39.457Z,81.71
2018-07-16T02:49:06.490Z,81.71
2018-07-16T02:51:33.480Z,81.60
2018-07-16T02:54:00.525Z,82.03
2018-07-16T02:56:27.655Z,81.95
2018-07-16T02:58:54.625Z,82.33
2018-07-16T03:01:21.621Z,82.37
2018-07-16T03:03:48.658Z,82.13
2018-07-16T03:06:16.633Z,82.60
2018-07-16T03:08:43.613Z,82.67
2018-07-16T03:11:10.646Z,82.78
2018-07-16T03:13:37.665Z,82.71
2018-07-16T03:16:04.685Z,82.87
2018-07-16T03:18:31.672Z,82.46
2018-07-16T03:20:58.702Z,82.81
2018-07-16T03:23:25.761Z,83.11
2018-07-16T03:25:52.789Z,82.87
2018-07-16T03:28:19.757Z,82.96
2018-07-16T03:30:47.022Z,83.13
2018-07-16T03:33:14.000Z,83.06
2018-07-16T03:35:41.289Z,83.01
2018-07-16T03:38:08.281Z,83.32
2018-07-16T03:40:35.282Z,83.23
2018-07-16T03:43:02.292Z,82.95
2018-07-16T03:45:29.295Z,83.37
2018-07-16T03:47:56.319Z,83.40
2018-07-16T03:50:23.582Z,83.51
2018-07-16T03:52:50.608Z,83.11
2018-07-16T03:55:17.689Z,83.48
2018-07-16T03:57:44.701Z,83.46
2018-07-16T04:00:11.901Z,83.15
2018-07-16T04:02:38.953Z,82.85
2018-07-16T04:05:05.958Z,83.20
2018-07-16T04:07:32.984Z,83.18
2018-07-16T04:10:00.027Z,82.91
2018-07-16T04:12:27.071Z,82.83
2018-07-16T04:14:54.266Z,82.88
2018-07-16T04:17:21.290Z,82.73
2018-07-16T04:19:48.493Z,82.97
2018-07-16T04:22:16.106Z,82.42
2018-07-16T04:24:43.088Z,82.01
2018-07-16T04:27:10.187Z,81.95
2018-07-16T04:29:37.188Z,82.13
2018-07-16T04:32:04.193Z,81.70
2018-07-16T04:34:31.195Z,81.83
2018-07-16T04:36:58.173Z,81.65
2018-07-16T04:39:25.181Z,81.44
2018-07-16T04:41:52.266Z,81.63
2018-07-16T04:44:19.293Z,81.15
2018-07-16T04:46:46.317Z,80.75
2018-07-16T04:49:13.313Z,80.96
2018-07-16T04:51:40.321Z,80.64
2018-07-16T04:54:07.365Z,80.38
2018-07-16T04:56:34.373Z,80.55
2018-07-16T04:59:01.466Z,79.91
2018-07-16T05:01:28.475Z,80.11
2018-07-16T05:03:55.473Z,79.30
2018-07-16T05:06:22.631Z,79.47
2018-07-16T05:08:49.581Z,78.96
2018-07-16T05:11:17.297Z,78.82
2018-07-16T05:13:44.264Z,78.46
2018-07-16T05:16:11.225Z,78.16
2018-07-16T05:18:38.237Z,77.95
2018-07-16T05:21:05.261Z,77.89
2018-07-16T05:23:32.257Z,77.65
2018-07-16T05:25:59.297Z,77.45
2018-07-16T05:28:26.332Z,76.87
2018-07-16T05:30:53.289Z,76.16
2018-07-16T05:33:20.329Z,76.29
2018-07-16T05:35:47.592Z,76.39
2018-07-16T05:38:14.627Z,75.49
2018-07-16T05:40:41.658Z,75.62
2018-07-16T05:43:08.657Z,75.00
2018-07-16T05:45:35.761Z,75.36
2018-07-16T05:48:03.117Z,74.43
2018-07-16T05:50:30.076Z,74.25
2018-07-16T05:52:57.105Z,74.36
2018-07-16T05:55:24.147Z,74.07
2018-07-16T05:57:51.161Z,73.64
2018-07-16T06:00:18.140Z,72.87
2018-07-16T06:02:45.132Z,72.34
2018-07-16T06:05:12.321Z,72.40
2018-07-16T06:07:39.306Z,72.16
2018-07-16T06:10:06.335Z,72.22
2018-07-16T06:12:33.337Z,71.62
2018-07-16T06:15:00.353Z,70.96
2018-07-16T06:17:27.344Z,70.61
2018-07-16T06:19:54.390Z,70.44
2018-07-16T06:22:21.394Z,70.24
2018-07-16T06:24:48.361Z,70.36
2018-07-16T06:27:15.417Z,69.50
2018-07-16T06:29:43.257Z,69.59
2018-07-16T06:32:10.474Z,69.13
2018-07-16T06:34:37.874Z,69.10
2018-07-16T06:37:05.106Z,67.58
2018-07-16T06:39:32.152Z,64.64
2018-07-16T06:41:59.126Z,65.48
2018-07-16T06:44:26.157Z,66.20
2018-07-16T06:46:53.497Z,65.63
2018-07-16T06:49:20.522Z,65.37
2018-07-16T06:51:47.540Z,65.84
2018-07-16T06:54:14.744Z,64.52
2018-07-16T06:56:41.757Z,62.93
2018-07-16T06:59:08.772Z,62.10
2018-07-16T07:01:35.830Z,63.21
2018-07-16T07:04:03.360Z,62.82
2018-07-16T07:06:30.677Z,62.52
2018-07-16T07:08:57.652Z,62.23
2018-07-16T07:11:24.632Z,61.64
2018-07-16T07:13:51.648Z,61.58
2018-07-16T07:16:19.017Z,61.55
2018-07-16T07:18:46.029Z,62.23
2018-07-16T07:21:13.170Z,60.77
2018-07-16T07:23:40.157Z,60.35
2018-07-16T07:26:07.144Z,59.70
2018-07-16T07:28:34.166Z,60.42
2018-07-16T07:31:01.170Z,60.46
2018-07-16T07:33:28.161Z,59.67
2018-07-16T07:35:55.153Z,59.39
2018-07-16T07:38:22.253Z,60.08
2018-07-16T07:40:49.685Z,59.85
2018-07-16T07:43:16.813Z,59.38
2018-07-16T07:45:43.761Z,58.18
2018-07-16T07:48:10.744Z,58.14
2018-07-16T07:50:37.716Z,58.76
2018-07-16T07:53:04.905Z,56.88
2018-07-16T07:55:31.953Z,56.55
2018-07-16T07:57:59.972Z,56.42
2018-07-16T08:00:26.974Z,55.76
2018-07-16T08:02:54.001Z,56.26
2018-07-16T08:05:21.516Z,55.89
2018-07-16T08:07:48.887Z,55.39
2018-07-16T08:10:15.999Z,55.34
2018-07-16T08:12:42.984Z,54.42
2018-07-16T08:15:10.001Z,54.85
2018-07-16T08:17:37.168Z,53.91
2018-07-16T08:20:04.217Z,53.61
2018-07-16T08:22:31.221Z,52.91
2018-07-16T08:24:58.228Z,53.76
2018-07-16T08:27:25.278Z,51.66
2018-07-16T08:29:52.294Z,51.35
2018-07-16T08:32:19.320Z,48.93
2018-07-16T08:34:46.310Z,49.77
2018-07-16T08:37:13.341Z,49.68
2018-07-16T08:39:40.365Z,49.64
2018-07-16T08:42:07.369Z,49.43
2018-07-16T08:44:34.554Z,49.74
2018-07-16T08:47:01.534Z,50.16
2018-07-16T08:49:28.528Z,50.43
2018-07-16T08:51:55.571Z,50.05
2018-07-16T08:54:22.625Z,50.86
2018-07-16T08:56:49.689Z,50.54
2018-07-16T08:59:16.731Z,51.57
2018-07-16T09:01:43.761Z,51.74
2018-07-16T09:04:10.788Z,50.88
2018-07-16T09:06:37.729Z,50.66
2018-07-16T09:09:04.861Z,51.38
2018-07-16T09:11:31.987Z,51.21
2018-07-16T09:13:59.004Z,50.46
2018-07-16T09:16:25.969Z,51.65
2018-07-16T09:18:52.935Z,51.11
2018-07-16T09:21:19.949Z,51.31
2018-07-16T09:23:47.013Z,50.91
2018-07-16T09:26:14.850Z,48.71
2018-07-16T09:28:41.833Z,49.38
2018-07-16T09:31:08.820Z,49.38
2018-07-16T09:33:36.019Z,48.60
2018-07-16T09:36:03.166Z,48.67
2018-07-16T09:38:30.232Z,48.81
2018-07-16T09:40:57.157Z,49.28
2018-07-16T09:43:24.845Z,49.60
2018-07-16T09:45:51.849Z,48.46
2018-07-16T09:48:18.845Z,48.86
2018-07-16T09:50:45.945Z,47.60
2018-07-16T09:53:12.945Z,48.20
2018-07-16T09:55:39.969Z,48.64
2018-07-16T09:58:06.949Z,48.32
2018-07-16T10:00:39.276Z,48.07
2018-07-16T10:03:06.289Z,47.06
2018-07-16T10:05:33.473Z,46.53
2018-07-16T10:08:00.432Z,45.75
2018-07-16T10:10:27.424Z,45.69
2018-07-16T10:12:54.441Z,47.15
2018-07-16T10:15:21.444Z,45.13
2018-07-16T10:17:48.468Z,45.68
2018-07-16T10:20:15.492Z,45.08
2018-07-16T10:22:42.685Z,45.37
2018-07-16T10:25:09.901Z,44.74
2018-07-16T10:27:36.925Z,45.04
2018-07-16T10:30:04.090Z,45.03
2018-07-16T10:32:31.085Z,44.50
2018-07-16T10:34:58.077Z,45.53
2018-07-16T10:37:25.812Z,44.77
2018-07-16T10:39:52.805Z,45.12
2018-07-16T10:42:19.809Z,44.68
2018-07-16T10:44:46.885Z,44.04
2018-07-16T10:47:13.857Z,44.64
2018-07-16T10:49:41.498Z,43.66
2018-07-16T10:52:08.526Z,44.19
2018-07-16T10:54:35.541Z,42.35
2018-07-16T10:57:02.557Z,43.46
2018-07-16T10:59:29.540Z,41.51
2018-07-16T11:01:56.686Z,40.79
2018-07-16T11:04:23.770Z,42.03
2018-07-16T11:06:50.837Z,42.05
2018-07-16T11:09:17.837Z,42.76
2018-07-16T11:11:44.789Z,41.62
2018-07-16T11:14:11.788Z,41.37
2018-07-16T11:16:38.829Z,41.96
2018-07-16T11:19:05.820Z,42.87
2018-07-16T11:21:32.841Z,43.35
2018-07-16T11:23:59.813Z,42.90
2018-07-16T11:26:26.789Z,43.08
2018-07-16T11:28:53.816Z,42.43
2018-07-16T11:31:20.833Z,41.55
2018-07-16T11:33:47.821Z,42.67
2018-07-16T11:36:14.829Z,44.39
2018-07-16T11:38:41.816Z,43.45
2018-07-16T11:41:08.797Z,41.06
2018-07-16T11:43:35.761Z,39.89
2018-07-16T11:46:02.798Z,39.89
2018-07-16T11:48:29.808Z,39.11
2018-07-16T11:50:56.837Z,39.37
2018-07-16T11:53:23.877Z,38.12
2018-07-16T11:55:51.141Z,38.90
2018-07-16T11:58:18.176Z,38.28
2018-07-16T12:00:45.194Z,38.71
2018-07-16T12:03:12.162Z,38.64
2018-07-16T12:05:39.128Z,38.74
2018-07-16T12:08:06.124Z,39.79
2018-07-16T12:10:33.320Z,38.88
2018-07-16T12:13:00.294Z,38.43
2018-07-16T12:15:27.348Z,37.96
2018-07-16T12:17:55.060Z,40.34
2018-07-16T12:20:22.072Z,40.46
2018-07-16T12:22:49.057Z,39.82
2018-07-16T12:25:16.124Z,40.54
2018-07-16T12:27:43.141Z,40.81
2018-07-16T12:30:10.281Z,40.73
2018-07-16T12:32:37.298Z,39.40
2018-07-16T12:35:04.528Z,39.41
2018-07-16T12:37:31.678Z,38.50
2018-07-16T12:39:58.649Z,38.19
2018-07-16T12:42:25.760Z,39.63
2018-07-16T12:44:52.742Z,38.79
2018-07-16T12:47:19.820Z,38.90
2018-07-16T12:49:46.853Z,38.44
2018-07-16T12:52:13.877Z,38.27
2018-07-16T12:54:40.973Z,38.78
2018-07-16T12:57:07.969Z,39.70
2018-07-16T12:59:34.929Z,39.85
2018-07-16T13:02:01.904Z,39.23
2018-07-16T13:04:28.865Z,37.50
2018-07-16T13:06:55.881Z,37.78
2018-07-16T13:09:22.873Z,37.87
2018-07-16T13:11:49.909Z,37.35
2018-07-16T13:14:16.934Z,37.66
2018-07-16T13:16:43.946Z,38.22
2018-07-16T13:19:10.922Z,38.37
2018-07-16T13:21:37.941Z,37.32
2018-07-16T13:24:04.970Z,38.06
2018-07-16T13:26:31.961Z,38.46
2018-07-16T13:28:59.027Z,38.86
2018-07-16T13:31:26.009Z,38.55
2018-07-16T13:33:52.985Z,37.53
2018-07-16T13:36:20.066Z,37.84
2018-07-16T13:38:47.045Z,36.77
2018-07-16T13:41:14.019Z,37.33
2018-07-16T13:43:41.881Z,37.67
2018-07-16T13:46:08.957Z,36.69
2018-07-16T13:48:35.996Z,37.40
2018-07-16T13:51:03.001Z,37.69
2018-07-16T13:53:30.018Z,37.21
2018-07-16T13:55:57.705Z,37.25
2018-07-16T13:58:24.692Z,37.20
2018-07-16T14:00:51.681Z,37.72
2018-07-16T14:03:18.725Z,37.95
2018-07-16T14:05:45.789Z,38.42
2018-07-16T14:08:12.869Z,38.24
2018-07-16T14:10:39.861Z,36.99
2018-07-16T14:13:07.013Z,37.05
2018-07-16T14:15:34.178Z,37.98
2018-07-16T14:18:02.034Z,37.46
2018-07-16T14:20:29.085Z,37.87
2018-07-16T14:22:56.089Z,38.47
2018-07-16T14:25:24.377Z,38.59
2018-07-16T14:27:51.399Z,37.61
2018-07-16T14:30:18.359Z,38.22
2018-07-16T14:32:45.381Z,38.15
2018-07-16T14:35:12.451Z,37.28
2018-07-16T14:37:39.505Z,37.50
2018-07-16T14:40:06.641Z,37.75
2018-07-16T14:42:33.685Z,36.63
2018-07-16T14:45:00.804Z,36.82
2018-07-16T14:47:28.093Z,37.19
2018-07-16T14:49:55.449Z,36.78
2018-07-16T14:52:22.473Z,37.33
2018-07-16T14:54:49.556Z,37.19
2018-07-16T14:57:16.808Z,37.06
2018-07-16T14:59:43.777Z,37.95
2018-07-16T15:02:10.817Z,38.06
2018-07-16T15:04:37.778Z,37.90
2018-07-16T15:07:04.797Z,38.57
2018-07-16T15:09:31.813Z,38.94
2018-07-16T15:11:59.041Z,39.39
2018-07-16T15:14:26.288Z,39.16
2018-07-16T15:16:54.001Z,38.16
2018-07-16T15:19:20.988Z,37.67
2018-07-16T15:21:48.101Z,37.34
2018-07-16T15:24:15.109Z,37.62
2018-07-16T15:26:42.096Z,37.71
2018-07-16T15:29:09.088Z,37.50
2018-07-16T15:31:36.049Z,37.51
2018-07-16T15:34:03.124Z,36.65
2018-07-16T15:36:30.085Z,38.38
2018-07-16T15:38:57.068Z,37.22
2018-07-16T15:41:24.109Z,36.90
2018-07-16T15:43:51.037Z,37.13
2018-07-16T15:46:18.249Z,36.77
2018-07-16T15:48:45.235Z,36.43
2018-07-16T15:51:12.337Z,36.27
2018-07-16T15:53:39.402Z,36.65
2018-07-16T15:56:06.489Z,37.11
2018-07-16T15:58:33.525Z,36.65
2018-07-16T16:01:00.585Z,36.90
2018-07-16T16:03:27.619Z,37.37
2018-07-16T16:05:54.585Z,36.80
2018-07-16T16:08:21.579Z,37.33
2018-07-16T16:10:48.550Z,37.38
2018-07-16T16:13:15.539Z,36.18
2018-07-16T16:15:42.525Z,36.72
2018-07-16T16:18:09.612Z,36.84
2018-07-16T16:20:36.585Z,37.05
2018-07-16T16:23:03.636Z,36.82
2018-07-16T16:25:30.618Z,36.77
2018-07-16T16:27:57.602Z,36.87
2018-07-16T16:30:24.654Z,36.84
2018-07-16T16:32:51.723Z,36.52
2018-07-16T16:35:19.225Z,36.97
2018-07-16T16:37:46.229Z,36.15
2018-07-16T16:40:13.868Z,36.80
2018-07-16T16:42:40.854Z,36.42
2018-07-16T16:45:09.127Z,35.79
2018-07-16T16:47:36.150Z,36.17
2018-07-16T16:50:03.449Z,36.20
2018-07-16T16:52:30.670Z,35.97
2018-07-16T16:54:57.740Z,36.47
2018-07-16T16:57:24.738Z,36.47
2018-07-16T16:59:51.758Z,36.43
2018-07-16T17:02:18.757Z,36.77
2018-07-16T17:04:46.469Z,36.54
2018-07-16T17:07:13.456Z,35.85
2018-07-16T17:09:40.592Z,36.54
2018-07-16T17:12:08.426Z,37.08
2018-07-16T17:14:35.477Z,36.71
2018-07-16T17:17:02.757Z,36.73
2018-07-16T17:19:29.758Z,36.84
2018-07-16T17:21:56.731Z,37.13
2018-07-16T17:24:23.787Z,37.30
2018-07-16T17:26:50.797Z,37.28
2018-07-16T17:29:17.813Z,37.45
2018-07-16T17:31:44.789Z,37.12
2018-07-16T17:34:11.784Z,36.71
2018-07-16T17:36:38.773Z,36.64
2018-07-16T17:39:07.309Z,36.85
2018-07-16T17:41:34.277Z,36.72
2018-07-16T17:44:01.565Z,36.88
2018-07-16T17:46:28.549Z,37.83
2018-07-16T17:48:55.598Z,37.00
2018-07-16T17:51:22.586Z,37.23
2018-07-16T17:53:49.598Z,37.14
2018-07-16T17:56:16.821Z,36.95
2018-07-16T17:58:43.781Z,37.14
2018-07-16T18:01:10.848Z,37.32
2018-07-16T18:03:37.800Z,37.30
2018-07-16T18:06:04.818Z,36.69
2018-07-16T18:08:31.809Z,36.92
2018-07-16T18:10:58.777Z,36.58
2018-07-16T18:13:26.117Z,36.33
2018-07-16T18:15:53.112Z,36.17
2018-07-16T18:18:23.005Z,36.51
2018-07-16T18:20:50.013Z,36.23
2018-07-16T18:23:17.022Z,35.86
2018-07-16T18:25:44.045Z,35.99
2018-07-16T18:28:11.045Z,35.64
2018-07-16T18:30:38.065Z,35.27
2018-07-16T18:33:05.106Z,35.63
2018-07-16T18:35:32.198Z,35.36
2018-07-16T18:37:59.161Z,35.78
2018-07-16T18:40:26.188Z,36.12
2018-07-16T18:42:53.179Z,36.12
2018-07-16T18:45:20.513Z,35.97
2018-07-16T18:47:47.615Z,36.26
2018-07-16T18:50:14.642Z,36.27
2018-07-16T18:52:41.677Z,36.89
2018-07-16T18:55:08.695Z,37.82
2018-07-16T18:57:35.676Z,37.06
2018-07-16T19:00:03.085Z,37.46
2018-07-16T19:02:30.071Z,38.47
2018-07-16T19:04:57.074Z,38.63
2018-07-16T19:07:24.065Z,39.36
2018-07-16T19:09:51.671Z,40.31
2018-07-16T19:12:18.740Z,40.44
2018-07-16T19:14:46.181Z,40.58
2018-07-16T19:17:13.261Z,40.86
2018-07-16T19:19:40.350Z,41.72
2018-07-16T19:22:07.397Z,41.90
2018-07-16T19:24:34.856Z,42.76
2018-07-16T19:27:02.153Z,43.53
2018-07-16T19:29:29.173Z,43.88
2018-07-16T19:31:56.170Z,43.71
2018-07-16T19:34:23.141Z,43.96
2018-07-16T19:36:50.160Z,44.02
2018-07-16T19:39:17.274Z,45.16
2018-07-16T19:41:44.213Z,44.78
2018-07-16T19:44:11.218Z,44.72
2018-07-16T19:46:38.229Z,45.88
2018-07-16T19:49:05.252Z,46.06
2018-07-16T19:51:32.229Z,45.67
2018-07-16T19:53:59.242Z,46.18
2018-07-16T19:56:26.342Z,46.01
2018-07-16T19:58:53.336Z,46.86
2018-07-16T20:01:20.413Z,47.07
2018-07-16T20:03:47.475Z,47.63
2018-07-16T20:06:14.485Z,47.52
2018-07-16T20:08:41.453Z,47.55
2018-07-16T20:11:08.585Z,48.32
2018-07-16T20:13:35.561Z,48.45
2018-07-16T20:16:02.554Z,48.67
2018-07-16T20:18:29.538Z,49.49
2018-07-16T20:20:57.747Z,49.72
2018-07-16T20:23:24.753Z,49.64
2018-07-16T20:25:53.333Z,49.33
2018-07-16T20:28:20.340Z,49.59
2018-07-16T20:30:47.541Z,50.53
2018-07-16T20:35:35.928Z,50.11
2018-07-16T20:38:02.897Z,50.56
2018-07-16T20:40:29.993Z,51.42
2018-07-16T20:42:57.017Z,51.41
2018-07-16T20:45:24.041Z,51.56
2018-07-16T20:47:51.121Z,51.73
2018-07-16T20:50:18.141Z,51.92
2018-07-16T20:52:45.199Z,52.00
2018-07-16T20:55:12.217Z,51.67
2018-07-16T20:57:39.429Z,51.75
2018-07-16T21:00:06.439Z,51.99
2018-07-16T21:02:33.637Z,52.64
2018-07-16T21:05:00.650Z,52.97
2018-07-16T21:07:27.662Z,52.71
2018-07-16T21:09:54.677Z,53.72
2018-07-16T21:12:21.725Z,54.40
2018-07-16T21:14:48.761Z,54.86
2018-07-16T21:17:15.956Z,55.16
2018-07-16T21:19:42.904Z,55.60
2018-07-16T21:22:09.901Z,55.60
2018-07-16T21:24:36.857Z,55.67
2018-07-16T21:27:03.877Z,55.58
2018-07-16T21:29:30.852Z,55.39
2018-07-16T21:31:57.828Z,56.02
2018-07-16T21:34:24.809Z,55.73
2018-07-16T21:36:51.809Z,55.95
2018-07-16T21:39:18.896Z,56.29
2018-07-16T21:41:45.936Z,57.38
2018-07-16T21:44:12.905Z,57.13
2018-07-16T21:46:39.941Z,58.12
2018-07-16T21:49:06.911Z,58.47
2018-07-16T21:51:34.009Z,58.25
2018-07-16T21:54:00.990Z,58.06
2018-07-16T21:56:28.164Z,58.25
2018-07-16T21:58:55.118Z,58.33
2018-07-16T22:01:22.123Z,58.83
2018-07-16T22:03:49.165Z,59.06
2018-07-16T22:06:16.133Z,59.31
2018-07-16T22:08:43.130Z,59.28
2018-07-16T22:11:10.118Z,59.66
2018-07-16T22:13:37.150Z,59.66
2018-07-16T22:16:04.184Z,60.00
2018-07-16T22:18:33.554Z,59.78
2018-07-16T22:21:00.550Z,60.16
2018-07-16T22:23:27.560Z,60.62
2018-07-16T22:25:54.611Z,61.28
2018-07-16T22:28:21.597Z,61.51
2018-07-16T22:30:48.723Z,61.96
2018-07-16T22:33:15.755Z,62.19
2018-07-16T22:35:42.741Z,62.21
2018-07-16T22:38:09.712Z,62.22
2018-07-16T22:40:36.717Z,62.62
2018-07-16T22:43:03.728Z,63.01
2018-07-16T22:45:30.761Z,63.64
2018-07-16T22:47:57.773Z,63.30
2018-07-16T22:50:24.750Z,64.13
2018-07-16T22:52:51.780Z,64.19
2018-07-16T22:55:18.777Z,64.18
2018-07-16T22:57:45.929Z,63.72
2018-07-16T23:00:12.938Z,63.81
2018-07-16T23:02:40.049Z,64.17
2018-07-16T23:05:07.045Z,64.67
2018-07-16T23:07:34.037Z,65.18
2018-07-16T23:10:01.085Z,64.92
2018-07-16T23:12:28.159Z,65.84
2018-07-16T23:14:55.124Z,65.80
2018-07-16T23:17:22.125Z,66.25
2018-07-16T23:19:49.245Z,65.75
2018-07-16T23:22:16.241Z,65.65
2018-07-16T23:24:43.209Z,66.05
2018-07-16T23:27:10.193Z,66.58
2018-07-16T23:29:37.241Z,66.09
2018-07-16T23:32:04.264Z,66.81
2018-07-16T23:34:31.277Z,67.23
2018-07-16T23:36:58.386Z,66.75
2018-07-16T23:39:25.393Z,67.31
2018-07-16T23:41:52.380Z,67.62
2018-07-16T23:44:19.365Z,67.34
2018-07-16T23:46:46.414Z,67.80
2018-07-16T23:49:13.429Z,67.92
2018-07-16T23:51:40.422Z,67.84
2018-07-16T23:54:07.437Z,67.97
2018-07-16T23:56:34.418Z,68.25
2018-07-16T23:59:01.442Z,68.28
